createdAt,value
2023-01-18T00:00:15.161Z,5.30
2023-01-18T00:02:47.054Z,5.25
2023-01-18T00:05:16.482Z,6.10
2023-01-18T00:07:47.133Z,4.90
2023-01-18T00:10:17.668Z,6.22
2023-01-18T00:12:52.171Z,5.88
2023-01-18T00:15:23.302Z,5.28
2023-01-18T00:17:53.947Z,4.07
2023-01-18T00:20:24.554Z,6.00
2023-01-18T00:22:58.446Z,5.70
2023-01-18T00:25:29.646Z,4.50
2023-01-18T00:27:57.748Z,4.25
2023-01-18T00:30:27.742Z,6.03
2023-01-18T00:33:02.150Z,4.88
2023-01-18T00:35:29.802Z,5.28
2023-01-18T00:38:00.405Z,6.22
2023-01-18T00:40:30.741Z,4.82
2023-01-18T00:43:16.502Z,4.20
2023-01-18T00:45:46.721Z,5.95
2023-01-18T00:48:24.772Z,6.45
2023-01-18T00:50:55.391Z,5.07
2023-01-18T00:53:25.672Z,5.57
2023-01-18T00:56:04.033Z,6.03
2023-01-18T00:58:37.344Z,5.15
2023-01-18T01:01:10.183Z,5.35
2023-01-18T01:03:57.166Z,4.37
2023-01-18T01:06:44.215Z,5.30
2023-01-18T01:09:23.501Z,5.28
2023-01-18T01:12:13.259Z,4.85
2023-01-18T01:15:01.795Z,5.32
2023-01-18T01:17:50.841Z,4.20
2023-01-18T01:20:42.785Z,5.60
2023-01-18T01:23:37.725Z,5.97
2023-01-18T01:26:06.715Z,5.72
2023-01-18T01:28:35.857Z,4.78
2023-01-18T01:31:05.197Z,4.82
2023-01-18T01:33:34.051Z,4.65
2023-01-18T01:36:14.387Z,6.25
2023-01-18T01:38:47.997Z,5.15
2023-01-18T01:41:26.885Z,4.75
2023-01-18T01:44:00.066Z,6.32
2023-01-18T01:46:46.119Z,6.05
2023-01-18T01:49:21.620Z,5.30
2023-01-18T01:52:11.591Z,5.90
2023-01-18T01:55:25.857Z,5.82
2023-01-18T01:58:00.242Z,4.35
2023-01-18T02:00:31.265Z,5.07
2023-01-18T02:03:10.669Z,6.63
2023-01-18T02:05:44.422Z,6.03
2023-01-18T02:10:46.773Z,5.90
2023-01-18T02:13:18.973Z,5.68
2023-01-18T02:15:58.523Z,7.65
2023-01-18T02:18:47.105Z,5.00
2023-01-18T02:21:20.368Z,5.63
2023-01-18T02:24:07.651Z,5.43
2023-01-18T02:26:59.868Z,5.25
2023-01-18T02:29:42.286Z,6.35
2023-01-18T02:32:29.555Z,5.55
2023-01-18T02:35:08.872Z,5.60
2023-01-18T02:38:12.938Z,5.43
2023-01-18T02:41:14.329Z,5.85
2023-01-18T02:44:04.003Z,6.03
2023-01-18T02:46:35.846Z,6.65
2023-01-18T02:49:20.874Z,6.07
2023-01-18T02:52:00.028Z,5.20
2023-01-18T02:54:32.438Z,5.65
2023-01-18T02:57:03.509Z,5.18
2023-01-18T02:59:43.020Z,5.55
2023-01-18T03:02:20.920Z,5.43
2023-01-18T03:04:56.300Z,5.43
2023-01-18T03:07:40.180Z,6.32
2023-01-18T03:10:10.774Z,5.63
2023-01-18T03:12:46.848Z,5.60
2023-01-18T03:15:30.090Z,6.22
2023-01-18T03:18:07.016Z,5.28
2023-01-18T03:20:41.608Z,5.90
2023-01-18T03:23:37.982Z,5.88
2023-01-18T03:26:10.595Z,6.95
2023-01-18T03:28:59.247Z,4.95
2023-01-18T03:31:57.486Z,6.05
2023-01-18T03:34:49.679Z,7.07
2023-01-18T03:37:31.204Z,5.35
2023-01-18T03:40:20.948Z,4.95
2023-01-18T03:43:14.865Z,5.50
2023-01-18T03:45:47.463Z,5.70
2023-01-18T03:48:26.819Z,5.93
2023-01-18T03:51:06.635Z,6.70
2023-01-18T03:53:40.338Z,6.95
2023-01-18T03:58:43.552Z,6.60
2023-01-18T04:01:12.107Z,6.03
2023-01-18T04:03:42.613Z,7.07
2023-01-18T04:06:13.713Z,6.95
2023-01-18T04:08:43.632Z,5.75
2023-01-18T04:11:14.072Z,5.60
2023-01-18T04:13:47.107Z,5.80
2023-01-18T04:16:20.838Z,6.28
2023-01-18T04:18:48.502Z,5.78
2023-01-18T04:21:22.598Z,7.65
2023-01-18T04:23:50.633Z,6.60
2023-01-18T04:26:19.671Z,6.57
2023-01-18T04:28:50.175Z,6.25
2023-01-18T04:31:20.725Z,6.95
2023-01-18T04:33:51.699Z,5.07
2023-01-18T04:36:24.859Z,5.43
2023-01-18T04:38:54.313Z,6.97
2023-01-18T04:41:25.185Z,6.20
2023-01-18T04:43:58.419Z,6.00
2023-01-18T04:46:31.153Z,6.97
2023-01-18T04:48:58.487Z,7.50
2023-01-18T04:51:31.317Z,5.93
2023-01-18T04:53:59.445Z,5.88
2023-01-18T04:56:27.402Z,6.00
2023-01-18T04:59:01.006Z,6.75
2023-01-18T05:01:29.645Z,6.28
2023-01-18T05:03:57.095Z,7.47
2023-01-18T05:06:24.644Z,7.43
2023-01-18T05:08:54.713Z,7.68
2023-01-18T05:11:24.744Z,7.13
2023-01-18T05:14:01.038Z,6.60
2023-01-18T05:16:31.177Z,7.65
2023-01-18T05:19:04.361Z,7.50
2023-01-18T05:21:37.005Z,7.25
2023-01-18T05:24:12.902Z,7.28
2023-01-18T05:26:43.142Z,6.80
2023-01-18T05:29:16.676Z,6.53
2023-01-18T05:31:44.281Z,6.47
2023-01-18T05:34:14.755Z,8.23
2023-01-18T05:36:49.386Z,6.28
2023-01-18T05:39:19.661Z,7.32
2023-01-18T05:41:47.269Z,7.13
2023-01-18T05:44:16.030Z,7.88
2023-01-18T05:46:51.132Z,7.78
2023-01-18T05:49:24.456Z,7.10
2023-01-18T05:51:52.857Z,6.05
2023-01-18T05:54:21.636Z,7.18
2023-01-18T05:56:51.902Z,7.25
2023-01-18T05:59:22.375Z,7.15
2023-01-18T06:01:49.946Z,7.95
2023-01-18T06:04:20.541Z,6.50
2023-01-18T06:06:50.680Z,7.20
2023-01-18T06:09:23.613Z,7.10
2023-01-18T06:11:54.132Z,7.63
2023-01-18T06:14:27.437Z,7.00
2023-01-18T06:17:01.696Z,7.28
2023-01-18T06:19:32.044Z,8.05
2023-01-18T06:22:04.570Z,8.10
2023-01-18T06:24:38.102Z,7.97
2023-01-18T06:27:11.743Z,9.50
2023-01-18T06:29:42.316Z,9.48
2023-01-18T06:32:10.019Z,8.68
2023-01-18T06:34:40.791Z,8.52
2023-01-18T06:37:16.009Z,7.80
2023-01-18T06:39:52.117Z,8.30
2023-01-18T06:42:24.722Z,7.38
2023-01-18T06:44:56.606Z,7.45
2023-01-18T06:47:29.623Z,7.55
2023-01-18T06:50:00.801Z,7.90
2023-01-18T06:52:28.483Z,7.50
2023-01-18T06:54:58.924Z,7.63
2023-01-18T06:57:29.916Z,8.82
2023-01-18T07:00:00.993Z,7.47
2023-01-18T07:02:34.291Z,8.27
2023-01-18T07:05:08.406Z,7.90
2023-01-18T07:07:38.953Z,7.60
2023-01-18T07:10:17.392Z,8.25
2023-01-18T07:12:48.815Z,7.10
2023-01-18T07:15:24.263Z,7.45
2023-01-18T07:17:56.285Z,7.50
2023-01-18T07:20:32.444Z,8.40
2023-01-18T07:23:05.004Z,8.40
2023-01-18T07:25:40.917Z,8.00
2023-01-18T07:28:13.817Z,8.65
2023-01-18T07:30:44.203Z,8.93
2023-01-18T07:33:14.374Z,8.05
2023-01-18T07:35:44.230Z,7.93
2023-01-18T07:38:15.653Z,8.35
2023-01-18T07:40:46.929Z,8.32
2023-01-18T07:43:18.876Z,8.57
2023-01-18T07:45:58.161Z,7.75
2023-01-18T07:48:38.810Z,6.80
2023-01-18T07:51:11.215Z,8.65
2023-01-18T07:53:40.099Z,9.13
2023-01-18T07:56:17.863Z,8.82
2023-01-18T07:58:52.941Z,7.97
2023-01-18T08:01:22.804Z,8.05
2023-01-18T08:03:51.117Z,10.25
2023-01-18T08:06:26.376Z,8.63
2023-01-18T08:09:02.513Z,8.13
2023-01-18T08:11:32.483Z,8.93
2023-01-18T08:14:05.236Z,8.05
2023-01-18T08:16:39.239Z,7.28
2023-01-18T08:19:10.096Z,9.00
2023-01-18T08:21:41.200Z,8.13
2023-01-18T08:24:16.367Z,8.95
2023-01-18T08:26:49.327Z,7.28
2023-01-18T08:29:22.632Z,8.23
2023-01-18T08:32:03.925Z,7.78
2023-01-18T08:34:40.811Z,7.40
2023-01-18T08:37:17.531Z,8.45
2023-01-18T08:39:56.427Z,7.57
2023-01-18T08:45:07.849Z,8.55
2023-01-18T08:47:51.921Z,7.72
2023-01-18T08:50:28.673Z,8.18
2023-01-18T08:53:00.768Z,8.13
2023-01-18T08:55:38.170Z,8.63
2023-01-18T08:58:15.028Z,9.07
2023-01-18T09:00:55.205Z,8.52
2023-01-18T09:03:25.464Z,8.35
2023-01-18T09:06:10.017Z,8.55
2023-01-18T09:08:42.068Z,7.47
2023-01-18T09:11:13.276Z,9.50
2023-01-18T09:14:01.007Z,8.63
2023-01-18T09:16:40.011Z,8.98
2023-01-18T09:19:11.497Z,9.65
2023-01-18T09:21:51.100Z,8.68
2023-01-18T09:24:35.418Z,8.93
2023-01-18T09:27:08.527Z,9.43
2023-01-18T09:29:53.032Z,9.50
2023-01-18T09:32:35.207Z,8.00
2023-01-18T09:35:18.397Z,9.30
2023-01-18T09:37:57.677Z,7.90
2023-01-18T09:40:44.204Z,8.93
2023-01-18T09:43:33.167Z,8.63
2023-01-18T09:46:02.074Z,9.25
2023-01-18T09:48:45.746Z,8.68
2023-01-18T09:51:25.679Z,9.50
2023-01-18T09:54:25.747Z,8.30
2023-01-18T09:57:12.308Z,9.18
2023-01-18T09:59:59.777Z,8.52
2023-01-18T10:02:36.175Z,8.43
2023-01-18T10:05:17.644Z,8.45
2023-01-18T10:08:08.055Z,8.05
2023-01-18T10:10:41.482Z,9.15
2023-01-18T10:16:03.281Z,8.82
2023-01-18T10:18:30.919Z,8.55
2023-01-18T10:21:05.454Z,8.98
2023-01-18T10:23:56.411Z,9.65
2023-01-18T10:26:32.090Z,9.43
2023-01-18T10:29:15.834Z,9.65
2023-01-18T10:31:47.202Z,8.40
2023-01-18T10:34:24.576Z,9.75
2023-01-18T10:36:58.956Z,9.30
2023-01-18T10:39:34.294Z,9.70
2023-01-18T10:42:07.223Z,9.60
2023-01-18T10:44:38.904Z,9.50
2023-01-18T10:47:09.164Z,9.10
2023-01-18T10:49:43.421Z,9.60
2023-01-18T10:52:28.614Z,9.43
2023-01-18T10:55:03.184Z,9.55
2023-01-18T10:57:34.697Z,9.18
2023-01-18T11:00:12.635Z,9.48
2023-01-18T11:02:47.546Z,9.50
2023-01-18T11:05:29.436Z,10.23
2023-01-18T11:08:31.701Z,9.00
2023-01-18T11:11:03.935Z,8.98
2023-01-18T11:13:35.106Z,9.88
2023-01-18T11:16:21.033Z,9.38
2023-01-18T11:19:01.091Z,9.35
2023-01-18T11:21:45.650Z,10.38
2023-01-18T11:24:30.476Z,8.90
2023-01-18T11:27:04.702Z,9.52
2023-01-18T11:29:39.691Z,9.65
2023-01-18T11:32:19.734Z,9.50
2023-01-18T11:34:52.484Z,10.00
2023-01-18T11:37:37.531Z,9.77
2023-01-18T11:40:37.965Z,9.68
2023-01-18T11:43:28.148Z,8.60
2023-01-18T11:46:10.593Z,8.68
2023-01-18T11:49:02.235Z,9.27
2023-01-18T11:51:45.948Z,9.40
2023-01-18T11:54:22.874Z,9.93
2023-01-18T11:57:03.248Z,10.20
2023-01-18T11:59:37.393Z,10.55
2023-01-18T12:02:30.938Z,10.60
2023-01-18T12:05:13.586Z,10.40
2023-01-18T12:07:55.470Z,9.70
2023-01-18T12:10:27.281Z,9.55
2023-01-18T12:13:04.184Z,10.13
2023-01-18T12:15:39.673Z,10.73
2023-01-18T12:18:16.601Z,11.07
2023-01-18T12:21:22.456Z,9.85
2023-01-18T12:24:04.727Z,9.65
2023-01-18T12:26:47.588Z,10.63
2023-01-18T12:29:38.901Z,9.50
2023-01-18T12:32:33.635Z,9.80
2023-01-18T12:35:23.009Z,10.30
2023-01-18T12:38:02.707Z,9.13
2023-01-18T12:40:39.204Z,9.23
2023-01-18T12:43:38.709Z,9.93
2023-01-18T12:46:11.175Z,10.18
2023-01-18T12:49:04.807Z,9.68
2023-01-18T12:51:36.761Z,10.10
2023-01-18T12:54:20.826Z,9.82
2023-01-18T12:56:52.830Z,10.15
2023-01-18T12:59:32.057Z,9.90
2023-01-18T13:02:54.920Z,10.80
2023-01-18T13:05:52.600Z,9.13
2023-01-18T13:08:44.901Z,10.57
2023-01-18T13:11:26.396Z,10.05
2023-01-18T13:14:17.363Z,10.10
2023-01-18T13:17:05.791Z,11.63
2023-01-18T13:19:47.300Z,10.38
2023-01-18T13:22:21.385Z,9.63
2023-01-18T13:25:09.026Z,10.60
2023-01-18T13:27:57.973Z,11.15
2023-01-18T13:30:26.877Z,9.50
2023-01-18T13:32:55.705Z,9.40
2023-01-18T13:35:33.648Z,9.27
2023-01-18T13:38:16.554Z,10.23
2023-01-18T13:40:59.277Z,10.23
2023-01-18T13:43:36.321Z,11.55
2023-01-18T13:46:25.529Z,10.65
2023-01-18T13:49:02.576Z,9.88
2023-01-18T13:51:42.731Z,10.23
2023-01-18T13:54:39.826Z,10.07
2023-01-18T13:57:10.256Z,10.68
2023-01-18T13:59:51.189Z,10.35
2023-01-18T14:02:36.067Z,9.25
2023-01-18T14:05:16.452Z,9.52
2023-01-18T14:07:52.485Z,10.27
2023-01-18T14:10:40.533Z,10.32
2023-01-18T14:13:19.131Z,10.70
2023-01-18T14:16:01.592Z,9.77
2023-01-18T14:18:40.778Z,10.00
2023-01-18T14:21:37.816Z,10.02
2023-01-18T14:24:20.531Z,11.00
2023-01-18T14:26:57.790Z,9.98
2023-01-18T14:29:44.690Z,10.90
2023-01-18T14:32:30.061Z,10.82
2023-01-18T14:35:26.117Z,9.20
2023-01-18T14:38:18.202Z,10.02
2023-01-18T14:40:57.425Z,10.40
2023-01-18T14:43:36.649Z,10.10
2023-01-18T14:46:14.973Z,9.75
2023-01-18T14:48:59.023Z,10.20
2023-01-18T14:51:33.483Z,10.98
2023-01-18T14:54:09.003Z,9.77
2023-01-18T14:56:48.930Z,9.35
2023-01-18T14:59:33.535Z,10.05
2023-01-18T15:02:19.974Z,10.15
2023-01-18T15:04:49.628Z,9.77
2023-01-18T15:07:38.392Z,11.07
2023-01-18T15:10:12.623Z,9.60
2023-01-18T15:12:49.939Z,11.25
2023-01-18T15:15:33.905Z,10.13
2023-01-18T15:18:11.414Z,11.02
2023-01-18T15:21:15.057Z,9.82
2023-01-18T15:23:47.199Z,11.13
2023-01-18T15:26:20.716Z,10.00
2023-01-18T15:29:08.368Z,10.30
2023-01-18T15:31:48.215Z,10.05
2023-01-18T15:34:21.686Z,10.38
2023-01-18T15:37:06.319Z,9.77
2023-01-18T15:39:59.528Z,9.98
2023-01-18T15:42:33.117Z,10.50
2023-01-18T15:45:09.885Z,9.90
2023-01-18T15:48:00.363Z,9.95
2023-01-18T15:50:44.806Z,10.55
2023-01-18T15:53:21.979Z,11.20
2023-01-18T15:55:51.909Z,10.02
2023-01-18T15:58:38.145Z,10.00
2023-01-18T16:01:27.544Z,9.48
2023-01-18T16:04:07.961Z,10.07
2023-01-18T16:06:45.793Z,10.10
2023-01-18T16:09:26.537Z,11.32
2023-01-18T16:11:59.923Z,10.32
2023-01-18T16:14:46.313Z,10.75
2023-01-18T16:17:27.037Z,9.93
2023-01-18T16:20:07.999Z,11.23
2023-01-18T16:22:46.495Z,9.55
2023-01-18T16:25:21.390Z,9.55
2023-01-18T16:28:02.385Z,9.35
2023-01-18T16:30:39.180Z,10.10
2023-01-18T16:33:23.741Z,8.68
2023-01-18T16:36:01.608Z,9.88
2023-01-18T16:38:33.170Z,11.23
2023-01-18T16:41:06.770Z,10.35
2023-01-18T16:43:47.008Z,9.65
2023-01-18T16:46:19.960Z,10.70
2023-01-18T16:48:53.329Z,10.85
2023-01-18T16:51:28.679Z,10.18
2023-01-18T16:54:06.331Z,10.25
2023-01-18T16:56:34.757Z,10.32
2023-01-18T16:59:15.475Z,9.95
2023-01-18T17:01:46.988Z,11.32
2023-01-18T17:04:15.645Z,11.63
2023-01-18T17:06:45.145Z,10.20
2023-01-18T17:09:28.115Z,10.60
2023-01-18T17:11:58.474Z,10.50
2023-01-18T17:14:29.224Z,11.48
2023-01-18T17:16:57.146Z,11.63
2023-01-18T17:19:25.937Z,10.55
2023-01-18T17:21:56.692Z,10.48
2023-01-18T17:24:25.650Z,10.88
2023-01-18T17:26:56.288Z,9.95
2023-01-18T17:29:32.813Z,10.68
2023-01-18T17:32:16.864Z,10.90
2023-01-18T17:34:52.825Z,9.68
2023-01-18T17:37:20.561Z,10.65
2023-01-18T17:40:10.811Z,11.35
2023-01-18T17:42:40.995Z,11.13
2023-01-18T17:45:14.500Z,11.00
2023-01-18T17:47:43.424Z,11.93
2023-01-18T17:50:15.501Z,10.25
2023-01-18T17:52:46.025Z,11.32
2023-01-18T17:55:14.312Z,10.77
2023-01-18T17:57:45.022Z,11.85
2023-01-18T18:00:18.460Z,10.73
2023-01-18T18:02:51.618Z,9.73
2023-01-18T18:05:20.111Z,10.80
2023-01-18T18:07:49.774Z,10.65
2023-01-18T18:10:17.728Z,9.00
2023-01-18T18:12:49.939Z,10.20
2023-01-18T18:15:25.607Z,10.85
2023-01-18T18:17:55.552Z,11.20
2023-01-18T18:20:25.325Z,11.85
2023-01-18T18:22:58.103Z,10.82
2023-01-18T18:25:31.732Z,10.52
2023-01-18T18:28:02.507Z,11.88
2023-01-18T18:30:33.168Z,10.13
2023-01-18T18:33:05.738Z,10.17
2023-01-18T18:35:35.976Z,10.95
2023-01-18T18:38:08.505Z,10.02
2023-01-18T18:40:38.699Z,11.25
2023-01-18T18:43:11.316Z,11.27
2023-01-18T18:45:39.911Z,11.23
2023-01-18T18:48:10.212Z,11.48
2023-01-18T18:50:43.921Z,11.15
2023-01-18T18:55:41.548Z,11.70
2023-01-18T18:58:11.794Z,11.40
2023-01-18T19:00:43.976Z,10.00
2023-01-18T19:03:11.676Z,10.00
2023-01-18T19:05:42.622Z,11.57
2023-01-18T19:08:12.785Z,10.75
2023-01-18T19:10:40.497Z,10.93
2023-01-18T19:13:10.712Z,11.30
2023-01-18T19:15:49.291Z,10.68
2023-01-18T19:18:20.112Z,10.48
2023-01-18T19:20:50.882Z,11.05
2023-01-18T19:23:20.907Z,11.07
2023-01-18T19:25:51.230Z,11.25
2023-01-18T19:28:22.105Z,10.40
2023-01-18T19:30:52.400Z,11.52
2023-01-18T19:33:23.141Z,10.65
2023-01-18T19:35:53.559Z,10.35
2023-01-18T19:38:21.429Z,11.57
2023-01-18T19:40:51.805Z,10.90
2023-01-18T19:43:22.031Z,10.90
2023-01-18T19:45:52.848Z,11.48
2023-01-18T19:48:25.628Z,10.32
2023-01-18T19:51:10.213Z,9.83
2023-01-18T19:53:47.008Z,10.45
2023-01-18T19:56:16.004Z,11.07
2023-01-18T19:58:44.820Z,10.43
2023-01-18T20:01:30.034Z,10.65
2023-01-18T20:04:05.874Z,11.23
2023-01-18T20:06:40.115Z,10.15
2023-01-18T20:09:18.495Z,10.55
2023-01-18T20:11:50.076Z,11.07
2023-01-18T20:14:19.503Z,10.27
2023-01-18T20:16:53.035Z,9.98
2023-01-18T20:19:24.124Z,10.88
2023-01-18T20:21:54.400Z,10.23
2023-01-18T20:24:27.469Z,11.02
2023-01-18T20:27:14.865Z,10.70
2023-01-18T20:29:46.620Z,9.93
2023-01-18T20:32:17.946Z,11.13
2023-01-18T20:34:50.804Z,11.23
2023-01-18T20:37:18.632Z,10.23
2023-01-18T20:39:47.285Z,10.38
2023-01-18T20:42:20.891Z,10.40
2023-01-18T20:44:54.650Z,11.27
2023-01-18T20:47:31.039Z,11.23
2023-01-18T20:52:37.037Z,10.90
2023-01-18T20:55:05.242Z,10.43
2023-01-18T20:57:35.778Z,10.82
2023-01-18T21:00:06.353Z,10.30
2023-01-18T21:02:36.731Z,10.10
2023-01-18T21:05:07.832Z,10.95
2023-01-18T21:07:40.211Z,9.88
2023-01-18T21:10:10.871Z,10.43
2023-01-18T21:12:44.435Z,9.90
2023-01-18T21:15:14.835Z,10.20
2023-01-18T21:17:50.111Z,11.07
2023-01-18T21:20:20.606Z,10.18
2023-01-18T21:22:49.010Z,10.30
2023-01-18T21:25:16.784Z,10.30
2023-01-18T21:27:46.849Z,10.57
2023-01-18T21:30:20.431Z,10.38
2023-01-18T21:32:53.696Z,12.05
2023-01-18T21:35:22.137Z,10.57
2023-01-18T21:37:56.543Z,10.77
2023-01-18T21:40:27.248Z,10.60
2023-01-18T21:43:16.449Z,13.15
2023-01-18T21:45:55.981Z,10.57
2023-01-18T21:48:28.170Z,9.77
2023-01-18T21:51:21.405Z,12.02
2023-01-18T21:54:10.491Z,10.45
2023-01-18T21:56:40.477Z,10.50
2023-01-18T21:59:08.271Z,10.63
2023-01-18T22:01:47.576Z,10.73
2023-01-18T22:04:36.818Z,11.45
2023-01-18T22:07:05.038Z,11.23
2023-01-18T22:09:39.332Z,11.27
2023-01-18T22:12:07.100Z,10.73
2023-01-18T22:14:39.450Z,9.95
2023-01-18T22:17:13.341Z,10.00
2023-01-18T22:19:43.972Z,10.20
2023-01-18T22:22:13.090Z,10.27
2023-01-18T22:24:43.770Z,11.38
2023-01-18T22:27:16.989Z,11.27
2023-01-18T22:29:49.964Z,10.18
2023-01-18T22:32:21.649Z,10.90
2023-01-18T22:34:53.413Z,11.23
2023-01-18T22:37:22.109Z,10.23
2023-01-18T22:39:52.924Z,10.98
2023-01-18T22:42:24.564Z,11.43
2023-01-18T22:44:57.089Z,11.38
2023-01-18T22:47:28.130Z,10.10
2023-01-18T22:49:55.515Z,11.52
2023-01-18T22:52:26.097Z,10.52
2023-01-18T22:54:53.473Z,10.77
2023-01-18T22:57:23.822Z,11.35
2023-01-18T22:59:51.575Z,10.68
2023-01-18T23:02:21.845Z,9.48
2023-01-18T23:04:49.611Z,10.88
2023-01-18T23:07:17.548Z,11.00
2023-01-18T23:09:47.373Z,11.38
2023-01-18T23:12:17.890Z,10.82
2023-01-18T23:15:04.721Z,10.52
2023-01-18T23:17:42.776Z,10.27
2023-01-18T23:20:16.231Z,10.70
2023-01-18T23:22:49.615Z,10.40
2023-01-18T23:25:17.070Z,11.20
2023-01-18T23:27:45.258Z,10.43
2023-01-18T23:30:15.883Z,10.48
2023-01-18T23:32:46.478Z,10.73
2023-01-18T23:35:19.341Z,10.73
2023-01-18T23:37:46.885Z,10.43
2023-01-18T23:40:35.876Z,10.38
2023-01-18T23:43:22.379Z,10.65
2023-01-18T23:46:11.210Z,10.50
2023-01-18T23:48:57.540Z,10.02
2023-01-18T23:51:46.164Z,11.07
2023-01-18T23:54:22.459Z,10.18
2023-01-18T23:56:52.777Z,9.98
2023-01-18T23:59:25.719Z,9.95
